Time,TemperatureF,DewpointF,PressureIn,WindDirection,WindDirectionDegrees,WindSpeedMPH,WindSpeedGustMPH,Humidity,HourlyPrecipIn,Conditions,Clouds,dailyrainin,SoftwareType,DateUTC
2013-04-16 00:00:00,62.8,58.9,30.24,North,355,0.0,1.0,87,0.00,,---,0.01,VWS V14.01,2013-04-16 04:00:00,
2013-04-16 00:01:00,62.8,59.2,30.24,North,355,0.0,1.0,88,0.00,,---,0.00,VWS V14.01,2013-04-16 04:01:00,
2013-04-16 00:03:00,62.8,59.2,30.24,North,355,0.0,0.0,88,0.00,,---,0.00,VWS V14.01,2013-04-16 04:03:00,
2013-04-16 00:08:00,62.7,59.1,30.24,North,355,0.0,0.0,88,0.00,,---,0.00,VWS V14.01,2013-04-16 04:08:00,
2013-04-16 00:13:00,62.6,59.0,30.24,North,355,0.0,0.0,88,0.00,,---,0.00,VWS V14.01,2013-04-16 04:13:00,
2013-04-16 00:18:00,62.6,59.0,30.24,North,355,0.0,0.0,88,0.00,,---,0.00,VWS V14.01,2013-04-16 04:18:00,
2013-04-16 00:23:00,62.6,59.0,30.24,North,355,0.0,0.0,88,0.00,,---,0.00,VWS V14.01,2013-04-16 04:23:00,
2013-04-16 00:28:00,62.6,59.0,30.24,North,355,0.0,0.0,88,0.00,,---,0.00,VWS V14.01,2013-04-16 04:28:00,
2013-04-16 00:33:00,62.5,58.9,30.24,North,355,0.0,1.0,88,0.00,,---,0.00,VWS V14.01,2013-04-16 04:33:00,
2013-04-16 00:38:00,62.5,58.9,30.24,North,355,0.0,1.0,88,0.00,,---,0.00,VWS V14.01,2013-04-16 04:38:00,
2013-04-16 00:44:00,62.5,58.9,30.24,North,355,0.0,1.0,88,0.00,,---,0.00,VWS V14.01,2013-04-16 04:44:00,
2013-04-16 00:49:00,62.5,58.9,30.24,North,355,0.0,0.0,88,0.00,,---,0.00,VWS V14.01,2013-04-16 04:49:00,
2013-04-16 00:54:00,62.5,58.9,30.24,North,355,0.0,1.0,88,0.00,,---,0.00,VWS V14.01,2013-04-16 04:54:00,
2013-04-16 00:59:00,62.4,59.1,30.24,North,355,0.0,1.0,89,0.00,,---,0.00,VWS V14.01,2013-04-16 04:59:00,
2013-04-16 01:04:00,62.4,59.1,30.24,North,355,0.0,0.0,89,0.00,,---,0.00,VWS V14.01,2013-04-16 05:04:00,
2013-04-16 01:09:00,62.3,59.0,30.25,North,355,0.0,0.0,89,0.00,,---,0.00,VWS V14.01,2013-04-16 05:09:00,
2013-04-16 01:14:00,62.3,59.0,30.24,North,355,0.0,0.0,89,0.00,,---,0.00,VWS V14.01,2013-04-16 05:14:00,
2013-04-16 01:19:00,62.2,58.9,30.24,North,355,0.0,0.0,89,0.00,,---,0.00,VWS V14.01,2013-04-16 05:19:00,
2013-04-16 01:24:00,62.1,58.8,30.24,North,355,0.0,0.0,89,0.00,,---,0.00,VWS V14.01,2013-04-16 05:24:00,
2013-04-16 01:29:00,62.0,59.0,30.25,North,355,0.0,0.0,90,0.00,,---,0.00,VWS V14.01,2013-04-16 05:29:00,
2013-04-16 01:34:00,62.0,58.7,30.25,North,355,0.0,0.0,89,0.00,,---,0.00,VWS V14.01,2013-04-16 05:34:00,
2013-04-16 01:40:00,62.0,59.0,30.25,North,355,0.0,0.0,90,0.00,,---,0.00,VWS V14.01,2013-04-16 05:40:00,
2013-04-16 01:45:00,62.0,59.0,30.25,North,355,0.0,0.0,90,0.00,,---,0.00,VWS V14.01,2013-04-16 05:45:00,
2013-04-16 01:50:00,62.0,59.0,30.25,North,355,0.0,0.0,90,0.00,,---,0.00,VWS V14.01,2013-04-16 05:50:00,
2013-04-16 01:55:00,61.9,58.9,30.25,North,355,0.0,0.0,90,0.00,,---,0.00,VWS V14.01,2013-04-16 05:55:00,
2013-04-16 02:00:00,61.8,58.8,30.25,North,355,0.0,0.0,90,0.00,,---,0.00,VWS V14.01,2013-04-16 06:00:00,
2013-04-16 02:05:00,61.9,58.9,30.25,North,355,0.0,0.0,90,0.00,,---,0.00,VWS V14.01,2013-04-16 06:05:00,
2013-04-16 02:10:00,61.9,58.9,30.25,North,355,0.0,0.0,90,0.00,,---,0.00,VWS V14.01,2013-04-16 06:10:00,
2013-04-16 02:16:00,61.9,58.9,30.25,North,355,0.0,0.0,90,0.00,,---,0.00,VWS V14.01,2013-04-16 06:16:00,
2013-04-16 02:21:00,61.8,58.8,30.25,North,355,0.0,0.0,90,0.00,,---,0.00,VWS V14.01,2013-04-16 06:21:00,
2013-04-16 02:26:00,61.8,58.8,30.25,North,355,0.0,0.0,90,0.00,,---,0.00,VWS V14.01,2013-04-16 06:26:00,
2013-04-16 02:31:00,61.8,58.8,30.25,North,355,0.0,0.0,90,0.00,,---,0.00,VWS V14.01,2013-04-16 06:31:00,
2013-04-16 02:36:00,61.8,58.8,30.25,North,355,0.0,0.0,90,0.00,,---,0.00,VWS V14.01,2013-04-16 06:36:00,
2013-04-16 02:41:00,61.8,58.8,30.24,North,355,0.0,0.0,90,0.00,,---,0.00,VWS V14.01,2013-04-16 06:41:00,
2013-04-16 02:46:00,61.8,58.8,30.25,North,355,0.0,0.0,90,0.00,,---,0.00,VWS V14.01,2013-04-16 06:46:00,
2013-04-16 02:51:00,61.8,58.8,30.24,North,355,0.0,0.0,90,0.00,,---,0.00,VWS V14.01,2013-04-16 06:51:00,
2013-04-16 02:56:00,61.8,58.8,30.25,North,355,0.0,0.0,90,0.00,,---,0.00,VWS V14.01,2013-04-16 06:56:00,
2013-04-16 03:01:00,61.6,58.6,30.25,North,355,0.0,0.0,90,0.00,,---,0.00,VWS V14.01,2013-04-16 07:01:00,
2013-04-16 03:06:00,61.5,58.5,30.25,North,355,0.0,0.0,90,0.00,,---,0.00,VWS V14.01,2013-04-16 07:06:00,
2013-04-16 03:12:00,61.6,58.6,30.25,North,355,0.0,0.0,90,0.00,,---,0.00,VWS V14.01,2013-04-16 07:12:00,
2013-04-16 03:17:00,61.5,58.5,30.24,North,355,0.0,0.0,90,0.00,,---,0.00,VWS V14.01,2013-04-16 07:17:00,
2013-04-16 03:22:00,61.4,58.5,30.24,North,355,0.0,0.0,90,0.00,,---,0.00,VWS V14.01,2013-04-16 07:22:00,
2013-04-16 03:27:00,61.2,58.2,30.24,North,355,0.0,0.0,90,0.00,,---,0.00,VWS V14.01,2013-04-16 07:27:00,
2013-04-16 03:32:00,61.1,58.5,30.25,North,355,0.0,0.0,91,0.00,,---,0.00,VWS V14.01,2013-04-16 07:32:00,
2013-04-16 03:38:00,61.1,58.5,30.25,North,355,0.0,0.0,91,0.00,,---,0.00,VWS V14.01,2013-04-16 07:38:00,
2013-04-16 03:43:00,61.1,58.5,30.25,North,355,0.0,0.0,91,0.00,,---,0.00,VWS V14.01,2013-04-16 07:43:00,
2013-04-16 03:48:00,61.0,58.4,30.25,North,355,0.0,0.0,91,0.00,,---,0.00,VWS V14.01,2013-04-16 07:48:00,
2013-04-16 03:53:00,61.0,58.7,30.25,North,355,0.0,0.0,92,0.00,,---,0.00,VWS V14.01,2013-04-16 07:53:00,
2013-04-16 03:58:00,60.8,58.5,30.25,North,355,0.0,0.0,92,0.00,,---,0.00,VWS V14.01,2013-04-16 07:58:00,
2013-04-16 04:03:00,60.6,58.3,30.25,North,355,0.0,0.0,92,0.00,,---,0.00,VWS V14.01,2013-04-16 08:03:00,
2013-04-16 04:08:00,60.5,58.2,30.25,North,355,0.0,0.0,92,0.00,,---,0.00,VWS V14.01,2013-04-16 08:08:00,
2013-04-16 04:13:00,60.4,58.1,30.25,North,355,0.0,0.0,92,0.00,,---,0.00,VWS V14.01,2013-04-16 08:13:00,
2013-04-16 04:19:00,60.3,58.0,30.25,North,355,0.0,0.0,92,0.00,,---,0.00,VWS V14.01,2013-04-16 08:19:00,
2013-04-16 04:24:00,60.3,58.0,30.25,North,355,0.0,0.0,92,0.00,,---,0.00,VWS V14.01,2013-04-16 08:24:00,
2013-04-16 04:29:00,60.0,57.7,30.25,North,355,0.0,0.0,92,0.00,,---,0.00,VWS V14.01,2013-04-16 08:29:00,
2013-04-16 04:34:00,59.7,57.7,30.25,North,355,0.0,0.0,93,0.00,,---,0.00,VWS V14.01,2013-04-16 08:34:00,
2013-04-16 04:39:00,59.3,57.3,30.25,North,355,0.0,0.0,93,0.00,,---,0.00,VWS V14.01,2013-04-16 08:39:00,
2013-04-16 04:44:00,59.1,57.1,30.25,North,355,0.0,0.0,93,0.00,,---,0.00,VWS V14.01,2013-04-16 08:44:00,
2013-04-16 04:50:00,58.8,56.8,30.25,North,355,0.0,0.0,93,0.00,,---,0.00,VWS V14.01,2013-04-16 08:50:00,
2013-04-16 04:55:00,58.5,56.8,30.25,North,355,0.0,0.0,94,0.00,,---,0.00,VWS V14.01,2013-04-16 08:55:00,
2013-04-16 05:00:00,58.5,56.8,30.25,North,355,0.0,0.0,94,0.00,,---,0.00,VWS V14.01,2013-04-16 09:00:00,
2013-04-16 05:05:00,58.6,56.9,30.25,North,355,0.0,0.0,94,0.00,,---,0.00,VWS V14.01,2013-04-16 09:05:00,
2013-04-16 05:10:00,58.7,57.0,30.25,North,355,0.0,0.0,94,0.00,,---,0.00,VWS V14.01,2013-04-16 09:10:00,
2013-04-16 05:15:00,58.7,57.3,30.25,North,355,0.0,0.0,95,0.00,,---,0.00,VWS V14.01,2013-04-16 09:15:00,
2013-04-16 05:20:00,58.8,57.4,30.25,North,355,0.0,0.0,95,0.00,,---,0.00,VWS V14.01,2013-04-16 09:20:00,
2013-04-16 05:26:00,58.6,56.9,30.25,North,355,0.0,0.0,94,0.00,,---,0.00,VWS V14.01,2013-04-16 09:26:00,
2013-04-16 05:32:00,58.4,56.7,30.25,North,355,0.0,0.0,94,0.00,,---,0.00,VWS V14.01,2013-04-16 09:32:00,
2013-04-16 05:37:00,58.4,57.0,30.26,North,355,0.0,0.0,95,0.00,,---,0.00,VWS V14.01,2013-04-16 09:37:00,
2013-04-16 05:42:00,58.2,56.8,30.25,North,355,0.0,0.0,95,0.00,,---,0.00,VWS V14.01,2013-04-16 09:42:00,
2013-04-16 05:47:00,58.2,56.8,30.26,North,355,0.0,0.0,95,0.00,,---,0.00,VWS V14.01,2013-04-16 09:47:00,
2013-04-16 05:52:00,58.2,56.8,30.26,North,355,0.0,0.0,95,0.00,,---,0.00,VWS V14.01,2013-04-16 09:52:00,
2013-04-16 05:57:00,58.3,56.9,30.26,North,355,0.0,0.0,95,0.00,,---,0.00,VWS V14.01,2013-04-16 09:57:00,
2013-04-16 06:02:00,58.5,57.1,30.26,North,355,0.0,0.0,95,0.00,,---,0.00,VWS V14.01,2013-04-16 10:02:00,
2013-04-16 06:07:00,58.5,57.1,30.26,North,355,0.0,0.0,95,0.00,,---,0.00,VWS V14.01,2013-04-16 10:07:00,
2013-04-16 06:12:00,58.5,57.1,30.26,North,355,0.0,0.0,95,0.00,,---,0.00,VWS V14.01,2013-04-16 10:12:00,
2013-04-16 06:18:00,58.6,57.2,30.26,North,355,0.0,0.0,95,0.00,,---,0.00,VWS V14.01,2013-04-16 10:18:00,
2013-04-16 06:23:00,58.4,57.0,30.26,North,355,0.0,0.0,95,0.00,,---,0.00,VWS V14.01,2013-04-16 10:23:00,
2013-04-16 06:28:00,58.3,56.9,30.26,North,355,0.0,0.0,95,0.00,,---,0.00,VWS V14.01,2013-04-16 10:28:00,
2013-04-16 06:33:00,58.0,56.6,30.26,North,355,0.0,0.0,95,0.00,,---,0.00,VWS V14.01,2013-04-16 10:33:00,
2013-04-16 06:38:00,57.5,55.8,30.26,North,355,0.0,0.0,94,0.00,,---,0.00,VWS V14.01,2013-04-16 10:38:00,
2013-04-16 06:44:00,57.3,55.9,30.27,North,355,0.0,0.0,95,0.00,,---,0.00,VWS V14.01,2013-04-16 10:44:00,
2013-04-16 06:49:00,57.1,55.7,30.27,North,355,0.0,0.0,95,0.00,,---,0.00,VWS V14.01,2013-04-16 10:49:00,
2013-04-16 06:54:00,56.6,55.2,30.27,North,355,0.0,0.0,95,0.00,,---,0.00,VWS V14.01,2013-04-16 10:54:00,
2013-04-16 06:59:00,56.4,55.0,30.27,North,355,0.0,0.0,95,0.00,,---,0.00,VWS V14.01,2013-04-16 10:59:00,
2013-04-16 07:04:00,56.5,55.4,30.27,North,355,0.0,0.0,96,0.00,,---,0.00,VWS V14.01,2013-04-16 11:04:00,
2013-04-16 07:09:00,56.2,54.8,30.27,North,355,0.0,0.0,95,0.00,,---,0.00,VWS V14.01,2013-04-16 11:09:00,
2013-04-16 07:14:00,56.2,55.1,30.27,North,355,0.0,0.0,96,0.00,,---,0.00,VWS V14.01,2013-04-16 11:14:00,
2013-04-16 07:19:00,56.4,55.3,30.28,North,355,0.0,0.0,96,0.00,,---,0.00,VWS V14.01,2013-04-16 11:19:00,
2013-04-16 07:24:00,56.7,55.6,30.28,North,355,0.0,0.0,96,0.00,,---,0.00,VWS V14.01,2013-04-16 11:24:00,
2013-04-16 07:29:00,56.7,55.6,30.28,North,355,0.0,0.0,96,0.00,,---,0.00,VWS V14.01,2013-04-16 11:29:00,
2013-04-16 07:35:00,56.9,55.8,30.28,North,355,0.0,0.0,96,0.00,,---,0.00,VWS V14.01,2013-04-16 11:35:00,
2013-04-16 07:40:00,57.5,56.4,30.28,North,355,0.0,0.0,96,0.00,,---,0.00,VWS V14.01,2013-04-16 11:40:00,
2013-04-16 07:45:00,58.1,57.0,30.28,North,355,0.0,0.0,96,0.00,,---,0.00,VWS V14.01,2013-04-16 11:45:00,
2013-04-16 07:50:00,58.8,57.7,30.28,North,355,0.0,0.0,96,0.00,,---,0.00,VWS V14.01,2013-04-16 11:50:00,
2013-04-16 07:55:00,59.3,58.2,30.28,North,355,0.0,0.0,96,0.00,,---,0.00,VWS V14.01,2013-04-16 11:55:00,
2013-04-16 08:00:00,59.7,58.6,30.29,North,355,0.0,0.0,96,0.00,,---,0.00,VWS V14.01,2013-04-16 12:00:00,
2013-04-16 08:06:00,60.2,58.8,30.29,North,355,0.0,0.0,95,0.00,,---,0.00,VWS V14.01,2013-04-16 12:06:00,
2013-04-16 08:11:00,60.8,59.4,30.29,North,355,0.0,0.0,95,0.00,,---,0.00,VWS V14.01,2013-04-16 12:11:00,
2013-04-16 08:16:00,61.8,59.8,30.29,North,355,0.0,0.0,93,0.00,,---,0.00,VWS V14.01,2013-04-16 12:16:00,
2013-04-16 08:21:00,62.3,60.2,30.29,SE,125,0.0,2.0,93,0.00,,---,0.00,VWS V14.01,2013-04-16 12:21:00,
2013-04-16 08:26:00,63.0,60.6,30.30,SE,125,0.0,2.0,92,0.00,,---,0.00,VWS V14.01,2013-04-16 12:26:00,
2013-04-16 08:32:00,63.4,60.7,30.30,SE,125,0.0,0.0,91,0.00,,---,0.00,VWS V14.01,2013-04-16 12:32:00,
2013-04-16 08:37:00,63.6,60.6,30.30,SE,124,1.0,1.0,90,0.00,,---,0.00,VWS V14.01,2013-04-16 12:37:00,
2013-04-16 08:42:00,63.7,60.7,30.30,SE,124,1.0,1.0,90,0.00,,---,0.00,VWS V14.01,2013-04-16 12:42:00,
2013-04-16 08:47:00,63.6,60.6,30.31,ESE,123,1.0,2.0,90,0.00,,---,0.00,VWS V14.01,2013-04-16 12:47:00,
2013-04-16 08:52:00,63.7,60.7,30.31,ESE,123,0.0,2.0,90,0.00,,---,0.00,VWS V14.01,2013-04-16 12:52:00,
2013-04-16 08:57:00,63.5,60.8,30.31,ESE,117,2.0,3.0,91,0.00,,---,0.00,VWS V14.01,2013-04-16 12:57:00,
2013-04-16 09:03:00,63.2,60.5,30.31,ESE,117,0.0,2.0,91,0.00,,---,0.00,VWS V14.01,2013-04-16 13:03:00,
2013-04-16 09:08:00,63.2,60.5,30.31,ESE,115,1.0,2.0,91,0.00,,---,0.00,VWS V14.01,2013-04-16 13:08:00,
2013-04-16 09:13:00,63.5,60.8,30.32,ESE,113,0.0,2.0,91,0.00,,---,0.00,VWS V14.01,2013-04-16 13:13:00,
2013-04-16 09:18:00,63.6,60.9,30.31,ESE,123,3.0,3.0,91,0.00,,---,0.00,VWS V14.01,2013-04-16 13:18:00,
2013-04-16 09:23:00,63.9,60.9,30.31,SE,124,1.0,3.0,90,0.00,,---,0.00,VWS V14.01,2013-04-16 13:23:00,
2013-04-16 09:28:00,64.2,61.2,30.31,SE,138,0.0,3.0,90,0.00,,---,0.00,VWS V14.01,2013-04-16 13:28:00,
2013-04-16 09:33:00,64.5,61.5,30.32,ESE,119,1.0,2.0,90,0.00,,---,0.00,VWS V14.01,2013-04-16 13:33:00,
2013-04-16 09:39:00,64.5,61.5,30.32,SE,134,0.0,5.0,90,0.00,,---,0.00,VWS V14.01,2013-04-16 13:39:00,
2013-04-16 09:44:00,64.7,61.7,30.32,SSE,159,1.0,5.0,90,0.00,,---,0.00,VWS V14.01,2013-04-16 13:44:00,
2013-04-16 09:49:00,64.9,61.6,30.32,East,86,1.0,5.0,89,0.00,,---,0.00,VWS V14.01,2013-04-16 13:49:00,
2013-04-16 09:54:00,65.2,61.9,30.32,SSE,155,1.0,5.0,89,0.00,,---,0.00,VWS V14.01,2013-04-16 13:54:00,
2013-04-16 09:59:00,65.7,61.7,30.32,South,177,3.0,5.0,87,0.00,,---,0.00,VWS V14.01,2013-04-16 13:59:00,
2013-04-16 10:04:00,65.8,61.8,30.33,SSE,164,0.0,3.0,87,0.00,,---,0.00,VWS V14.01,2013-04-16 14:04:00,
2013-04-16 10:09:00,66.1,61.5,30.33,South,189,2.0,3.0,85,0.00,,---,0.00,VWS V14.01,2013-04-16 14:09:00,
2013-04-16 10:15:00,66.2,61.2,30.33,SSE,163,3.0,5.0,84,0.00,,---,0.00,VWS V14.01,2013-04-16 14:15:00,
2013-04-16 10:20:00,66.5,61.2,30.33,South,172,1.0,3.0,83,0.00,,---,0.00,VWS V14.01,2013-04-16 14:20:00,
2013-04-16 10:25:00,66.7,61.4,30.33,South,172,0.0,3.0,83,0.00,,---,0.00,VWS V14.01,2013-04-16 14:25:00,
2013-04-16 10:30:00,67.1,62.1,30.33,South,171,2.0,3.0,84,0.00,,---,0.00,VWS V14.01,2013-04-16 14:30:00,
2013-04-16 10:35:00,67.1,61.8,30.33,SSE,150,1.0,4.0,83,0.00,,---,0.00,VWS V14.01,2013-04-16 14:35:00,
2013-04-16 10:40:00,67.3,62.0,30.33,SSE,165,1.0,4.0,83,0.00,,---,0.00,VWS V14.01,2013-04-16 14:40:00,
2013-04-16 10:45:00,67.7,61.7,30.33,SSE,165,0.0,4.0,81,0.00,,---,0.00,VWS V14.01,2013-04-16 14:45:00,
2013-04-16 10:50:00,68.9,62.1,30.33,WNW,284,0.0,3.0,79,0.00,,---,0.00,VWS V14.01,2013-04-16 14:50:00,
2013-04-16 10:56:00,69.7,63.3,30.33,WNW,292,1.0,3.0,80,0.00,,---,0.00,VWS V14.01,2013-04-16 14:56:00,
2013-04-16 11:01:00,70.3,63.5,30.33,SSW,207,1.0,1.0,79,0.00,,---,0.00,VWS V14.01,2013-04-16 15:01:00,
2013-04-16 11:06:00,69.6,64.2,30.33,SSW,205,0.0,2.0,83,0.00,,---,0.00,VWS V14.01,2013-04-16 15:06:00,
2013-04-16 11:11:00,71.1,63.5,30.33,WNW,294,0.0,3.0,77,0.00,,---,0.00,VWS V14.01,2013-04-16 15:11:00,
2013-04-16 11:16:00,71.7,63.7,30.33,West,261,0.0,3.0,76,0.00,,---,0.00,VWS V14.01,2013-04-16 15:16:00,
2013-04-16 11:22:00,71.3,64.1,30.34,NW,313,3.0,7.0,78,0.00,,---,0.00,VWS V14.01,2013-04-16 15:22:00,
2013-04-16 11:27:00,71.5,63.5,30.34,SW,231,1.0,7.0,76,0.00,,---,0.00,VWS V14.01,2013-04-16 15:27:00,
2013-04-16 11:32:00,71.3,63.7,30.34,NW,313,3.0,8.0,77,0.00,,---,0.00,VWS V14.01,2013-04-16 15:32:00,
2013-04-16 11:37:00,72.7,63.9,30.34,West,262,1.0,8.0,74,0.00,,---,0.00,VWS V14.01,2013-04-16 15:37:00,
2013-04-16 11:42:00,72.5,64.1,30.34,West,271,0.0,8.0,75,0.00,,---,0.00,VWS V14.01,2013-04-16 15:42:00,
2013-04-16 11:47:00,71.4,62.3,30.34,WSW,244,2.0,2.0,73,0.00,,---,0.00,VWS V14.01,2013-04-16 15:47:00,
2013-04-16 11:52:00,72.7,63.9,30.34,West,259,0.0,4.0,74,0.00,,---,0.00,VWS V14.01,2013-04-16 15:52:00,
2013-04-16 11:58:00,72.8,62.0,30.34,WNW,294,2.0,4.0,69,0.00,,---,0.00,VWS V14.01,2013-04-16 15:58:00,
2013-04-16 12:03:00,72.9,62.5,30.34,West,276,0.0,3.0,70,0.00,,---,0.00,VWS V14.01,2013-04-16 16:03:00,
2013-04-16 12:08:00,73.8,64.6,30.33,WNW,289,0.0,3.0,73,0.00,,---,0.00,VWS V14.01,2013-04-16 16:08:00,
2013-04-16 12:13:00,73.1,62.7,30.33,NW,309,3.0,5.0,70,0.00,,---,0.00,VWS V14.01,2013-04-16 16:13:00,
2013-04-16 12:18:00,72.9,63.3,30.33,NNW,328,5.0,5.0,72,0.00,,---,0.00,VWS V14.01,2013-04-16 16:18:00,
2013-04-16 12:23:00,72.4,62.1,30.33,NNW,348,1.0,5.0,70,0.00,,---,0.00,VWS V14.01,2013-04-16 16:23:00,
2013-04-16 12:28:00,72.6,62.3,30.33,WNW,302,0.0,5.0,70,0.00,,---,0.00,VWS V14.01,2013-04-16 16:28:00,
2013-04-16 12:33:00,72.5,62.6,30.33,NNE,28,0.0,3.0,71,0.00,,---,0.00,VWS V14.01,2013-04-16 16:33:00,
2013-04-16 12:38:00,72.2,62.3,30.33,WNW,298,3.0,4.0,71,0.00,,---,0.00,VWS V14.01,2013-04-16 16:38:00,
2013-04-16 12:43:00,72.5,62.6,30.33,NW,311,0.0,4.0,71,0.00,,---,0.00,VWS V14.01,2013-04-16 16:43:00,
2013-04-16 12:49:00,72.6,62.7,30.33,NNW,338,0.0,3.0,71,0.00,,---,0.00,VWS V14.01,2013-04-16 16:49:00,
2013-04-16 12:54:00,72.8,61.6,30.33,North,355,0.0,3.0,68,0.00,,---,0.00,VWS V14.01,2013-04-16 16:54:00,
2013-04-16 12:59:00,72.1,61.8,30.33,ENE,58,1.0,3.0,70,0.00,,---,0.00,VWS V14.01,2013-04-16 16:59:00,
2013-04-16 13:04:00,73.0,63.0,30.33,NNW,344,0.0,4.0,71,0.00,,---,0.00,VWS V14.01,2013-04-16 17:04:00,
2013-04-16 13:09:00,74.1,63.7,30.33,North,355,1.0,4.0,70,0.00,,---,0.00,VWS V14.01,2013-04-16 17:09:00,
2013-04-16 13:15:00,74.3,62.6,30.32,NW,307,4.0,4.0,67,0.00,,---,0.00,VWS V14.01,2013-04-16 17:15:00,
2013-04-16 13:20:00,73.9,63.1,30.32,WNW,298,3.0,4.0,69,0.00,,---,0.00,VWS V14.01,2013-04-16 17:20:00,
2013-04-16 13:25:00,72.6,62.3,30.32,NW,311,7.0,8.0,70,0.00,,---,0.00,VWS V14.01,2013-04-16 17:25:00,
2013-04-16 13:30:00,71.6,62.1,30.31,WNW,289,3.0,8.0,72,0.00,,---,0.00,VWS V14.01,2013-04-16 17:30:00,
2013-04-16 13:35:00,71.3,61.8,30.32,WNW,298,5.0,6.0,72,0.00,,---,0.00,VWS V14.01,2013-04-16 17:35:00,
2013-04-16 13:41:00,71.3,62.6,30.32,NW,308,2.0,8.0,74,0.00,,---,0.00,VWS V14.01,2013-04-16 17:41:00,
2013-04-16 13:46:00,71.4,62.3,30.32,WNW,294,3.0,8.0,73,0.00,,---,0.00,VWS V14.01,2013-04-16 17:46:00,
2013-04-16 13:52:00,71.4,61.9,30.31,NNW,327,3.0,6.0,72,0.00,,---,0.00,VWS V14.01,2013-04-16 17:52:00,
2013-04-16 13:57:00,71.6,62.5,30.31,WSW,255,2.0,6.0,73,0.00,,---,0.00,VWS V14.01,2013-04-16 17:57:00,
2013-04-16 14:02:00,72.2,62.3,30.31,NW,312,0.0,3.0,71,0.00,,---,0.00,VWS V14.01,2013-04-16 18:02:00,
2013-04-16 14:07:00,72.4,62.1,30.31,NNW,327,3.0,3.0,70,0.00,,---,0.00,VWS V14.01,2013-04-16 18:07:00,
2013-04-16 14:12:00,73.0,63.0,30.31,West,263,2.0,3.0,71,0.00,,---,0.00,VWS V14.01,2013-04-16 18:12:00,
2013-04-16 14:17:00,72.7,62.0,30.31,West,266,0.0,3.0,69,0.00,,---,0.00,VWS V14.01,2013-04-16 18:17:00,
2013-04-16 14:23:00,72.2,60.2,30.31,NW,326,0.0,3.0,66,0.00,,---,0.00,VWS V14.01,2013-04-16 18:23:00,
2013-04-16 14:28:00,72.7,61.5,30.30,SSW,209,2.0,4.0,68,0.00,,---,0.00,VWS V14.01,2013-04-16 18:28:00,
2013-04-16 14:33:00,72.9,61.3,30.30,SSW,209,0.0,1.0,67,0.00,,---,0.00,VWS V14.01,2013-04-16 18:33:00,
2013-04-16 14:38:00,74.0,62.4,30.30,NW,326,2.0,4.0,67,0.00,,---,0.00,VWS V14.01,2013-04-16 18:38:00,
2013-04-16 14:43:00,74.0,61.1,30.30,NNE,15,0.0,4.0,64,0.00,,---,0.00,VWS V14.01,2013-04-16 18:43:00,
2013-04-16 14:48:00,75.8,64.9,30.29,NW,313,2.0,3.0,69,0.00,,---,0.00,VWS V14.01,2013-04-16 18:48:00,
2013-04-16 14:53:00,75.4,64.1,30.29,NW,311,0.0,3.0,68,0.00,,---,0.00,VWS V14.01,2013-04-16 18:53:00,
2013-04-16 14:58:00,76.6,65.7,30.28,NNW,346,4.0,4.0,69,0.00,,---,0.00,VWS V14.01,2013-04-16 18:58:00,
2013-04-16 15:04:00,76.9,62.9,30.28,NNE,26,0.0,4.0,62,0.00,,---,0.00,VWS V14.01,2013-04-16 19:04:00,
2013-04-16 15:09:00,76.4,62.9,30.28,NNW,328,1.0,5.0,63,0.00,,---,0.00,VWS V14.01,2013-04-16 19:09:00,
2013-04-16 15:14:00,74.9,62.3,30.28,NNW,339,0.0,5.0,65,0.00,,---,0.00,VWS V14.01,2013-04-16 19:14:00,
2013-04-16 15:19:00,75.7,63.1,30.28,South,182,1.0,3.0,65,0.00,,---,0.00,VWS V14.01,2013-04-16 19:19:00,
2013-04-16 15:25:00,76.9,63.4,30.27,WSW,244,2.0,4.0,63,0.00,,---,0.00,VWS V14.01,2013-04-16 19:25:00,
2013-04-16 15:30:00,77.1,64.0,30.27,WSW,250,1.0,4.0,64,0.00,,---,0.00,VWS V14.01,2013-04-16 19:30:00,
2013-04-16 15:35:00,76.7,62.7,30.26,SSE,163,1.0,4.0,62,0.00,,---,0.00,VWS V14.01,2013-04-16 19:35:00,
2013-04-16 15:40:00,75.8,62.3,30.26,SSE,168,2.0,7.0,63,0.00,,---,0.00,VWS V14.01,2013-04-16 19:40:00,
2013-04-16 15:45:00,76.2,63.1,30.25,SE,146,2.0,7.0,64,0.00,,---,0.00,VWS V14.01,2013-04-16 19:45:00,
2013-04-16 15:51:00,75.8,61.4,30.25,ESE,113,3.0,8.0,61,0.00,,---,0.00,VWS V14.01,2013-04-16 19:51:00,
2013-04-16 15:56:00,75.9,62.0,30.25,SE,140,4.0,8.0,62,0.00,,---,0.00,VWS V14.01,2013-04-16 19:56:00,
2013-04-16 16:01:00,75.9,62.0,30.25,SSE,155,2.0,4.0,62,0.00,,---,0.00,VWS V14.01,2013-04-16 20:01:00,
2013-04-16 16:06:00,76.4,62.9,30.25,East,82,3.0,8.0,63,0.00,,---,0.00,VWS V14.01,2013-04-16 20:06:00,
2013-04-16 16:12:00,76.4,61.5,30.25,East,99,1.0,8.0,60,0.00,,---,0.00,VWS V14.01,2013-04-16 20:12:00,
2013-04-16 16:17:00,76.2,61.8,30.25,South,188,1.0,4.0,61,0.00,,---,0.00,VWS V14.01,2013-04-16 20:17:00,
2013-04-16 16:22:00,75.1,60.8,30.25,South,190,0.0,5.0,61,0.00,,---,0.00,VWS V14.01,2013-04-16 20:22:00,
2013-04-16 16:27:00,75.9,60.6,30.25,SSE,165,0.0,5.0,59,0.00,,---,0.00,VWS V14.01,2013-04-16 20:27:00,
2013-04-16 16:33:00,76.1,62.2,30.24,South,181,3.0,4.0,62,0.00,,---,0.00,VWS V14.01,2013-04-16 20:33:00,
2013-04-16 16:38:00,76.4,62.0,30.24,SE,133,3.0,5.0,61,0.00,,---,0.00,VWS V14.01,2013-04-16 20:38:00,
2013-04-16 16:43:00,76.8,60.9,30.24,SSE,166,4.0,6.0,58,0.00,,---,0.00,VWS V14.01,2013-04-16 20:43:00,
2013-04-16 16:48:00,76.7,60.8,30.24,SSE,148,1.0,5.0,58,0.00,,---,0.00,VWS V14.01,2013-04-16 20:48:00,
2013-04-16 16:53:00,76.0,60.7,30.24,SSE,159,1.0,6.0,59,0.00,,---,0.00,VWS V14.01,2013-04-16 20:53:00,
2013-04-16 16:59:00,75.1,61.2,30.24,South,170,1.0,6.0,62,0.00,,---,0.00,VWS V14.01,2013-04-16 20:59:00,
2013-04-16 17:04:00,75.2,62.2,30.24,South,177,0.0,1.0,64,0.00,,---,0.00,VWS V14.01,2013-04-16 21:04:00,
2013-04-16 17:09:00,76.5,62.1,30.24,WSW,256,1.0,5.0,61,0.00,,---,0.00,VWS V14.01,2013-04-16 21:09:00,
2013-04-16 17:14:00,77.1,61.2,30.24,South,178,4.0,5.0,58,0.00,,---,0.00,VWS V14.01,2013-04-16 21:14:00,
2013-04-16 17:19:00,76.7,61.3,30.24,SSW,192,3.0,4.0,59,0.00,,---,0.00,VWS V14.01,2013-04-16 21:19:00,
2013-04-16 17:24:00,76.9,62.0,30.24,South,180,3.0,5.0,60,0.00,,---,0.00,VWS V14.01,2013-04-16 21:24:00,
2013-04-16 17:30:00,76.5,60.2,30.24,SSE,147,3.0,6.0,57,0.00,,---,0.00,VWS V14.01,2013-04-16 21:30:00,
2013-04-16 17:35:00,76.2,60.4,30.24,South,180,0.0,5.0,58,0.00,,---,0.00,VWS V14.01,2013-04-16 21:35:00,
2013-04-16 17:40:00,76.4,60.5,30.24,SW,232,1.0,6.0,58,0.00,,---,0.00,VWS V14.01,2013-04-16 21:40:00,
2013-04-16 17:45:00,76.4,60.5,30.24,South,174,2.0,7.0,58,0.00,,---,0.00,VWS V14.01,2013-04-16 21:45:00,
2013-04-16 17:51:00,76.1,60.3,30.24,South,169,2.0,5.0,58,0.00,,---,0.00,VWS V14.01,2013-04-16 21:51:00,
2013-04-16 17:56:00,75.6,60.3,30.24,South,175,1.0,5.0,59,0.00,,---,0.00,VWS V14.01,2013-04-16 21:56:00,
2013-04-16 18:01:00,75.9,60.1,30.24,SSW,196,0.0,1.0,58,0.00,,---,0.00,VWS V14.01,2013-04-16 22:01:00,
2013-04-16 18:06:00,76.0,60.7,30.24,SSE,162,0.0,4.0,59,0.00,,---,0.00,VWS V14.01,2013-04-16 22:06:00,
2013-04-16 18:11:00,75.6,59.8,30.24,South,190,0.0,4.0,58,0.00,,---,0.00,VWS V14.01,2013-04-16 22:11:00,
2013-04-16 18:16:00,75.3,59.5,30.24,SSE,167,2.0,4.0,58,0.00,,---,0.00,VWS V14.01,2013-04-16 22:16:00,
2013-04-16 18:21:00,75.5,60.7,30.24,SSE,165,2.0,7.0,60,0.00,,---,0.00,VWS V14.01,2013-04-16 22:21:00,
2013-04-16 18:27:00,75.4,60.1,30.24,SSE,161,1.0,7.0,59,0.00,,---,0.00,VWS V14.01,2013-04-16 22:27:00,
2013-04-16 18:32:00,74.9,59.6,30.24,SSE,164,2.0,3.0,59,0.00,,---,0.00,VWS V14.01,2013-04-16 22:32:00,
2013-04-16 18:37:00,74.7,59.9,30.24,South,172,0.0,4.0,60,0.00,,---,0.00,VWS V14.01,2013-04-16 22:37:00,
2013-04-16 18:42:00,74.8,60.0,30.24,SSE,151,0.0,5.0,60,0.00,,---,0.00,VWS V14.01,2013-04-16 22:42:00,
2013-04-16 18:48:00,74.9,60.6,30.24,SE,133,1.0,3.0,61,0.00,,---,0.00,VWS V14.01,2013-04-16 22:48:00,
2013-04-16 18:53:00,75.0,60.2,30.24,SE,142,0.0,4.0,60,0.00,,---,0.00,VWS V14.01,2013-04-16 22:53:00,
2013-04-16 18:58:00,74.8,60.0,30.24,SE,128,3.0,4.0,60,0.00,,---,0.00,VWS V14.01,2013-04-16 22:58:00,
2013-04-16 19:03:00,74.7,59.4,30.24,South,172,1.0,4.0,59,0.00,,---,0.00,VWS V14.01,2013-04-16 23:03:00,
2013-04-16 19:08:00,74.5,59.2,30.24,SSE,166,0.0,7.0,59,0.00,,---,0.00,VWS V14.01,2013-04-16 23:08:00,
2013-04-16 19:14:00,74.2,59.9,30.24,SSE,157,2.0,7.0,61,0.00,,---,0.00,VWS V14.01,2013-04-16 23:14:00,
2013-04-16 19:19:00,73.9,59.6,30.24,SSE,168,3.0,4.0,61,0.00,,---,0.00,VWS V14.01,2013-04-16 23:19:00,
2013-04-16 19:24:00,73.8,59.5,30.24,SSE,149,4.0,5.0,61,0.00,,---,0.00,VWS V14.01,2013-04-16 23:24:00,
2013-04-16 19:29:00,73.3,59.5,30.24,SSE,159,1.0,5.0,62,0.00,,---,0.00,VWS V14.01,2013-04-16 23:29:00,
2013-04-16 19:34:00,73.1,59.8,30.24,SSE,159,0.0,2.0,63,0.00,,---,0.00,VWS V14.01,2013-04-16 23:34:00,
2013-04-16 19:39:00,72.7,59.4,30.24,SSE,162,1.0,2.0,63,0.00,,---,0.00,VWS V14.01,2013-04-16 23:39:00,
2013-04-16 19:44:00,72.2,59.4,30.24,SSE,162,0.0,2.0,64,0.00,,---,0.00,VWS V14.01,2013-04-16 23:44:00,
2013-04-16 19:49:00,71.9,59.5,30.24,SSE,162,0.0,1.0,65,0.00,,---,0.00,VWS V14.01,2013-04-16 23:49:00,
2013-04-16 19:55:00,71.4,59.5,30.24,SSE,162,0.0,1.0,66,0.00,,---,0.00,VWS V14.01,2013-04-16 23:55:00,
2013-04-16 20:00:00,70.7,59.2,30.24,SSE,162,0.0,1.0,67,0.00,,---,0.00,VWS V14.01,2013-04-17 00:00:00,
2013-04-16 20:05:00,69.6,59.8,30.24,SSE,162,0.0,0.0,71,0.00,,---,0.00,VWS V14.01,2013-04-17 00:05:00,
2013-04-16 20:10:00,68.7,59.3,30.24,SSE,162,0.0,0.0,72,0.00,,---,0.00,VWS V14.01,2013-04-17 00:10:00,
2013-04-16 20:15:00,68.0,59.4,30.24,SSE,162,0.0,0.0,74,0.00,,---,0.00,VWS V14.01,2013-04-17 00:15:00,
2013-04-16 20:20:00,67.7,59.1,30.24,SSE,162,0.0,0.0,74,0.00,,---,0.00,VWS V14.01,2013-04-17 00:20:00,
2013-04-16 20:26:00,66.7,58.9,30.24,SSE,162,0.0,0.0,76,0.00,,---,0.00,VWS V14.01,2013-04-17 00:26:00,
2013-04-16 20:31:00,65.9,58.9,30.24,SSE,162,0.0,0.0,78,0.00,,---,0.00,VWS V14.01,2013-04-17 00:31:00,
2013-04-16 20:36:00,65.4,58.7,30.25,SSE,162,0.0,0.0,79,0.00,,---,0.00,VWS V14.01,2013-04-17 00:36:00,
2013-04-16 20:41:00,64.9,58.6,30.25,SSE,162,0.0,0.0,80,0.00,,---,0.00,VWS V14.01,2013-04-17 00:41:00,
2013-04-16 20:46:00,64.5,58.5,30.25,SSE,162,0.0,0.0,81,0.00,,---,0.00,VWS V14.01,2013-04-17 00:46:00,
2013-04-16 20:52:00,64.4,58.8,30.25,SSE,162,0.0,0.0,82,0.00,,---,0.00,VWS V14.01,2013-04-17 00:52:00,
2013-04-16 20:57:00,64.2,58.3,30.25,SSE,162,0.0,0.0,81,0.00,,---,0.00,VWS V14.01,2013-04-17 00:57:00,
2013-04-16 21:02:00,63.8,58.2,30.25,SSE,162,0.0,0.0,82,0.00,,---,0.00,VWS V14.01,2013-04-17 01:02:00,
2013-04-16 21:07:00,63.6,58.7,30.25,SSE,162,0.0,0.0,84,0.00,,---,0.00,VWS V14.01,2013-04-17 01:07:00,
2013-04-16 21:12:00,63.6,58.3,30.25,SSE,162,0.0,0.0,83,0.00,,---,0.00,VWS V14.01,2013-04-17 01:12:00,
2013-04-16 21:18:00,63.1,57.9,30.25,SSE,162,0.0,0.0,83,0.00,,---,0.00,VWS V14.01,2013-04-17 01:18:00,
2013-04-16 21:23:00,63.0,58.4,30.25,SSE,162,0.0,0.0,85,0.00,,---,0.00,VWS V14.01,2013-04-17 01:23:00,
2013-04-16 21:28:00,63.1,58.5,30.25,SSE,162,0.0,0.0,85,0.00,,---,0.00,VWS V14.01,2013-04-17 01:28:00,
2013-04-16 21:33:00,63.0,58.1,30.26,SSE,162,0.0,0.0,84,0.00,,---,0.00,VWS V14.01,2013-04-17 01:33:00,
2013-04-16 21:38:00,62.8,58.6,30.26,SSE,162,0.0,0.0,86,0.00,,---,0.00,VWS V14.01,2013-04-17 01:38:00,
2013-04-16 21:44:00,62.6,58.0,30.26,SSE,162,0.0,0.0,85,0.00,,---,0.00,VWS V14.01,2013-04-17 01:44:00,
2013-04-16 21:49:00,62.1,57.9,30.26,SSE,162,0.0,0.0,86,0.00,,---,0.00,VWS V14.01,2013-04-17 01:49:00,
2013-04-16 21:54:00,61.7,57.8,30.26,SSE,162,0.0,0.0,87,0.00,,---,0.00,VWS V14.01,2013-04-17 01:54:00,
2013-04-16 21:59:00,61.4,57.5,30.26,SSE,162,0.0,0.0,87,0.00,,---,0.00,VWS V14.01,2013-04-17 01:59:00,
2013-04-16 22:04:00,61.3,57.7,30.26,SSE,162,0.0,0.0,88,0.00,,---,0.00,VWS V14.01,2013-04-17 02:04:00,
2013-04-16 22:09:00,61.1,57.5,30.27,SSE,162,0.0,0.0,88,0.00,,---,0.00,VWS V14.01,2013-04-17 02:09:00,
2013-04-16 22:15:00,61.0,57.7,30.27,SSE,162,0.0,0.0,89,0.00,,---,0.00,VWS V14.01,2013-04-17 02:15:00,
2013-04-16 22:20:00,60.9,57.6,30.27,SSE,162,0.0,0.0,89,0.00,,---,0.00,VWS V14.01,2013-04-17 02:20:00,
2013-04-16 22:25:00,61.0,57.7,30.27,SSE,162,0.0,0.0,89,0.00,,---,0.00,VWS V14.01,2013-04-17 02:25:00,
2013-04-16 22:31:00,60.7,57.4,30.27,SSE,162,0.0,0.0,89,0.00,,---,0.00,VWS V14.01,2013-04-17 02:31:00,
2013-04-16 22:36:00,60.6,57.7,30.27,SSE,162,0.0,0.0,90,0.00,,---,0.00,VWS V14.01,2013-04-17 02:36:00,
2013-04-16 22:41:00,60.4,57.2,30.27,SSE,162,0.0,0.0,89,0.00,,---,0.00,VWS V14.01,2013-04-17 02:41:00,
2013-04-16 22:46:00,60.1,57.2,30.27,SSE,162,0.0,0.0,90,0.00,,---,0.00,VWS V14.01,2013-04-17 02:46:00,
2013-04-16 22:52:00,59.9,57.0,30.27,SSE,162,0.0,0.0,90,0.00,,---,0.00,VWS V14.01,2013-04-17 02:52:00,
2013-04-16 22:57:00,59.7,57.1,30.27,SSE,162,0.0,0.0,91,0.00,,---,0.00,VWS V14.01,2013-04-17 02:57:00,
2013-04-16 23:02:00,59.6,57.0,30.27,SSE,162,0.0,0.0,91,0.00,,---,0.00,VWS V14.01,2013-04-17 03:02:00,
2013-04-16 23:07:00,59.7,57.1,30.27,SSE,162,0.0,0.0,91,0.00,,---,0.00,VWS V14.01,2013-04-17 03:07:00,
2013-04-16 23:12:00,59.5,57.2,30.27,SSE,162,0.0,0.0,92,0.00,,---,0.00,VWS V14.01,2013-04-17 03:12:00,
2013-04-16 23:18:00,59.3,57.0,30.27,SSE,162,0.0,0.0,92,0.00,,---,0.00,VWS V14.01,2013-04-17 03:18:00,
2013-04-16 23:23:00,59.1,56.8,30.27,SSE,162,0.0,0.0,92,0.00,,---,0.00,VWS V14.01,2013-04-17 03:23:00,
2013-04-16 23:28:00,59.2,57.2,30.27,SSE,162,0.0,0.0,93,0.00,,---,0.00,VWS V14.01,2013-04-17 03:28:00,
2013-04-16 23:33:00,59.0,56.7,30.27,SSE,162,0.0,0.0,92,0.00,,---,0.00,VWS V14.01,2013-04-17 03:33:00,
2013-04-16 23:38:00,59.0,57.0,30.27,SSE,162,0.0,0.0,93,0.00,,---,0.00,VWS V14.01,2013-04-17 03:38:00,
2013-04-16 23:44:00,59.1,57.1,30.27,SSE,162,0.0,0.0,93,0.00,,---,0.00,VWS V14.01,2013-04-17 03:44:00,
2013-04-16 23:49:00,58.7,56.4,30.27,SSE,162,0.0,0.0,92,0.00,,---,0.00,VWS V14.01,2013-04-17 03:49:00,
2013-04-16 23:54:00,58.5,56.5,30.27,SSE,162,0.0,0.0,93,0.00,,---,0.00,VWS V14.01,2013-04-17 03:54:00,
2013-04-16 23:59:00,58.4,56.4,30.27,SSE,162,0.0,0.0,93,0.00,,---,0.00,VWS V14.01,2013-04-17 03:59:00,